sensor_id;sensor_type;location;lat;lon;timestamp;P1;durP1;ratioP1;P2;durP2;ratioP2
75112;SDS011;63692;47.338;8.520;2022-10-31T06:23:23;30.05;;;11.25;;
75112;SDS011;63692;47.338;8.520;2022-10-31T06:25:49;24.67;;;9.25;;
75112;SDS011;63692;47.338;8.520;2022-10-31T06:28:15;34.92;;;11.52;;
75112;SDS011;63692;47.338;8.520;2022-10-31T06:30:41;32.78;;;9.20;;
75112;SDS011;63692;47.338;8.520;2022-10-31T06:33:07;36.90;;;10.43;;
75112;SDS011;63692;47.338;8.520;2022-10-31T06:35:32;30.50;;;11.15;;
75112;SDS011;63692;47.338;8.520;2022-10-31T06:37:58;44.03;;;12.45;;
75112;SDS011;63692;47.338;8.520;2022-10-31T06:40:24;34.85;;;11.52;;
75112;SDS011;63692;47.338;8.520;2022-10-31T06:42:58;31.75;;;11.55;;
75112;SDS011;63692;47.338;8.520;2022-10-31T06:45:24;34.13;;;11.38;;
75112;SDS011;63692;47.338;8.520;2022-10-31T06:47:54;37.35;;;11.05;;
75112;SDS011;63692;47.338;8.520;2022-10-31T06:50:20;41.38;;;12.80;;
75112;SDS011;63692;47.338;8.520;2022-10-31T06:52:53;35.03;;;12.40;;
75112;SDS011;63692;47.338;8.520;2022-10-31T06:55:20;37.53;;;12.10;;
75112;SDS011;63692;47.338;8.520;2022-10-31T06:58:09;32.25;;;13.50;;
75112;SDS011;63692;47.338;8.520;2022-10-31T07:00:34;29.95;;;11.02;;
75112;SDS011;63692;47.338;8.520;2022-10-31T07:03:01;36.85;;;12.82;;
75112;SDS011;63692;47.338;8.520;2022-10-31T07:10:26;35.80;;;12.00;;
75112;SDS011;63692;47.338;8.520;2022-10-31T07:12:56;22.27;;;11.57;;
75112;SDS011;63692;47.338;8.520;2022-10-31T07:15:27;37.83;;;11.25;;
75112;SDS011;63692;47.338;8.520;2022-10-31T07:17:54;21.00;;;10.50;;
75112;SDS011;63692;47.338;8.520;2022-10-31T07:20:24;28.77;;;11.10;;
75112;SDS011;63692;47.338;8.520;2022-10-31T07:25:17;19.13;;;10.57;;
75112;SDS011;63692;47.338;8.520;2022-10-31T07:27:43;19.77;;;10.50;;
75112;SDS011;63692;47.338;8.520;2022-10-31T07:32:39;34.95;;;12.02;;
75112;SDS011;63692;47.338;8.520;2022-10-31T07:35:10;29.98;;;12.15;;
75112;SDS011;63692;47.338;8.520;2022-10-31T07:37:37;29.77;;;13.82;;
75112;SDS011;63692;47.338;8.520;2022-10-31T07:40:04;28.67;;;14.40;;
75112;SDS011;63692;47.338;8.520;2022-10-31T07:42:35;36.80;;;14.85;;
75112;SDS011;63692;47.338;8.520;2022-10-31T07:45:01;26.95;;;14.90;;
75112;SDS011;63692;47.338;8.520;2022-10-31T07:47:27;37.92;;;15.75;;
75112;SDS011;63692;47.338;8.520;2022-10-31T07:49:53;27.38;;;14.27;;
75112;SDS011;63692;47.338;8.520;2022-10-31T07:52:19;28.52;;;14.80;;
75112;SDS011;63692;47.338;8.520;2022-10-31T07:54:44;57.63;;;15.65;;
75112;SDS011;63692;47.338;8.520;2022-10-31T07:57:10;36.60;;;14.98;;
75112;SDS011;63692;47.338;8.520;2022-10-31T07:59:35;58.38;;;15.77;;
75112;SDS011;63692;47.338;8.520;2022-10-31T08:02:02;48.20;;;15.05;;
75112;SDS011;63692;47.338;8.520;2022-10-31T08:04:28;43.78;;;15.07;;
75112;SDS011;63692;47.338;8.520;2022-10-31T08:06:53;42.45;;;16.38;;
75112;SDS011;63692;47.338;8.520;2022-10-31T08:09:19;23.58;;;14.73;;
75112;SDS011;63692;47.338;8.520;2022-10-31T08:11:45;30.42;;;14.43;;
75112;SDS011;63692;47.338;8.520;2022-10-31T08:16:43;18.80;;;13.27;;
75112;SDS011;63692;47.338;8.520;2022-10-31T08:19:09;19.92;;;13.15;;
75112;SDS011;63692;47.338;8.520;2022-10-31T08:21:34;27.85;;;13.98;;
75112;SDS011;63692;47.338;8.520;2022-10-31T08:24:00;19.25;;;12.50;;
75112;SDS011;63692;47.338;8.520;2022-10-31T08:28:56;17.30;;;11.77;;
75112;SDS011;63692;47.338;8.520;2022-10-31T08:31:22;16.27;;;11.20;;
75112;SDS011;63692;47.338;8.520;2022-10-31T08:33:48;15.18;;;10.68;;
75112;SDS011;63692;47.338;8.520;2022-10-31T08:36:13;17.80;;;10.80;;
75112;SDS011;63692;47.338;8.520;2022-10-31T08:38:39;15.45;;;10.80;;
75112;SDS011;63692;47.338;8.520;2022-10-31T08:41:05;14.68;;;10.82;;
75112;SDS011;63692;47.338;8.520;2022-10-31T08:43:30;16.90;;;11.82;;
75112;SDS011;63692;47.338;8.520;2022-10-31T08:45:56;18.60;;;11.93;;
75112;SDS011;63692;47.338;8.520;2022-10-31T08:48:22;15.02;;;11.70;;
75112;SDS011;63692;47.338;8.520;2022-10-31T08:50:47;17.38;;;11.65;;
75112;SDS011;63692;47.338;8.520;2022-10-31T08:53:15;16.40;;;12.20;;
75112;SDS011;63692;47.338;8.520;2022-10-31T08:55:42;19.85;;;11.10;;
75112;SDS011;63692;47.338;8.520;2022-10-31T08:58:12;25.13;;;12.70;;
75112;SDS011;63692;47.338;8.520;2022-10-31T09:00:39;28.05;;;12.88;;
75112;SDS011;63692;47.338;8.520;2022-10-31T09:03:12;29.95;;;13.65;;
75112;SDS011;63692;47.338;8.520;2022-10-31T09:05:43;27.75;;;12.50;;
75112;SDS011;63692;47.338;8.520;2022-10-31T09:08:09;26.67;;;13.10;;
75112;SDS011;63692;47.338;8.520;2022-10-31T09:10:35;25.67;;;12.52;;
75112;SDS011;63692;47.338;8.520;2022-10-31T09:13:02;20.40;;;13.32;;
75112;SDS011;63692;47.338;8.520;2022-10-31T09:15:36;18.42;;;13.10;;
75112;SDS011;63692;47.338;8.520;2022-10-31T09:18:07;19.30;;;13.60;;
75112;SDS011;63692;47.338;8.520;2022-10-31T09:20:34;19.35;;;12.63;;
75112;SDS011;63692;47.338;8.520;2022-10-31T09:23:02;20.42;;;13.57;;
75112;SDS011;63692;47.338;8.520;2022-10-31T09:25:48;18.27;;;13.75;;
75112;SDS011;63692;47.338;8.520;2022-10-31T09:28:16;22.35;;;15.50;;
75112;SDS011;63692;47.338;8.520;2022-10-31T09:30:45;22.15;;;16.38;;
75112;SDS011;63692;47.338;8.520;2022-10-31T09:33:15;25.88;;;17.17;;
75112;SDS011;63692;47.338;8.520;2022-10-31T09:35:41;26.58;;;16.60;;
75112;SDS011;63692;47.338;8.520;2022-10-31T09:38:14;22.95;;;15.40;;
75112;SDS011;63692;47.338;8.520;2022-10-31T09:53:47;31.35;;;16.48;;
75112;SDS011;63692;47.338;8.520;2022-10-31T09:56:52;26.38;;;16.13;;
75112;SDS011;63692;47.338;8.520;2022-10-31T10:02:04;24.02;;;17.35;;
75112;SDS011;63692;47.338;8.520;2022-10-31T10:14:49;21.83;;;14.85;;
75112;SDS011;63692;47.338;8.520;2022-10-31T10:26:17;18.83;;;13.80;;
75112;SDS011;63692;47.338;8.520;2022-10-31T10:28:54;21.17;;;13.90;;
75112;SDS011;63692;47.338;8.520;2022-10-31T10:56:12;25.08;;;17.40;;
75112;SDS011;63692;47.338;8.520;2022-10-31T11:03:37;28.02;;;18.02;;
75112;SDS011;63692;47.338;8.520;2022-10-31T11:15:58;26.83;;;17.30;;
75112;SDS011;63692;47.338;8.520;2022-10-31T11:21:03;27.48;;;18.30;;
75112;SDS011;63692;47.338;8.520;2022-10-31T11:23:30;26.05;;;16.17;;
75112;SDS011;63692;47.338;8.520;2022-10-31T11:25:57;24.65;;;17.58;;
75112;SDS011;63692;47.338;8.520;2022-10-31T11:28:29;25.65;;;17.48;;
75112;SDS011;63692;47.338;8.520;2022-10-31T11:30:58;28.15;;;17.40;;
75112;SDS011;63692;47.338;8.520;2022-10-31T11:33:35;22.40;;;16.20;;
75112;SDS011;63692;47.338;8.520;2022-10-31T11:38:47;25.55;;;14.00;;
75112;SDS011;63692;47.338;8.520;2022-10-31T11:41:15;29.40;;;17.77;;
75112;SDS011;63692;47.338;8.520;2022-10-31T11:44:01;28.23;;;17.85;;
75112;SDS011;63692;47.338;8.520;2022-10-31T11:46:44;25.40;;;16.40;;
75112;SDS011;63692;47.338;8.520;2022-10-31T11:51:42;26.45;;;17.45;;
75112;SDS011;63692;47.338;8.520;2022-10-31T11:54:18;28.48;;;16.35;;
75112;SDS011;63692;47.338;8.520;2022-10-31T11:56:52;24.75;;;16.05;;
75112;SDS011;63692;47.338;8.520;2022-10-31T11:59:21;24.55;;;15.88;;
75112;SDS011;63692;47.338;8.520;2022-10-31T12:01:52;20.58;;;13.90;;
75112;SDS011;63692;47.338;8.520;2022-10-31T12:04:19;23.65;;;16.40;;
75112;SDS011;63692;47.338;8.520;2022-10-31T12:06:55;20.27;;;14.82;;
75112;SDS011;63692;47.338;8.520;2022-10-31T12:09:23;25.10;;;14.20;;
75112;SDS011;63692;47.338;8.520;2022-10-31T12:15:06;26.15;;;16.20;;
75112;SDS011;63692;47.338;8.520;2022-10-31T12:20:16;28.55;;;17.25;;
75112;SDS011;63692;47.338;8.520;2022-10-31T12:25:55;22.88;;;16.13;;
75112;SDS011;63692;47.338;8.520;2022-10-31T12:31:42;24.95;;;15.43;;
75112;SDS011;63692;47.338;8.520;2022-10-31T12:46:01;21.77;;;12.63;;
75112;SDS011;63692;47.338;8.520;2022-10-31T12:51:25;34.28;;;15.40;;
75112;SDS011;63692;47.338;8.520;2022-10-31T12:59:21;30.25;;;14.38;;
75112;SDS011;63692;47.338;8.520;2022-10-31T13:04:53;25.48;;;13.60;;
75112;SDS011;63692;47.338;8.520;2022-10-31T13:17:42;25.33;;;13.48;;
75112;SDS011;63692;47.338;8.520;2022-10-31T13:20:15;24.45;;;12.63;;
75112;SDS011;63692;47.338;8.520;2022-10-31T13:22:48;24.23;;;11.95;;
75112;SDS011;63692;47.338;8.520;2022-10-31T13:25:20;24.83;;;12.55;;
75112;SDS011;63692;47.338;8.520;2022-10-31T13:28:00;22.95;;;11.82;;
75112;SDS011;63692;47.338;8.520;2022-10-31T13:30:39;19.75;;;11.05;;
75112;SDS011;63692;47.338;8.520;2022-10-31T13:34:08;22.40;;;11.43;;
75112;SDS011;63692;47.338;8.520;2022-10-31T13:39:01;25.33;;;11.82;;
75112;SDS011;63692;47.338;8.520;2022-10-31T13:41:44;20.67;;;11.95;;
75112;SDS011;63692;47.338;8.520;2022-10-31T13:46:46;19.77;;;11.10;;
75112;SDS011;63692;47.338;8.520;2022-10-31T13:52:11;19.65;;;10.77;;
75112;SDS011;63692;47.338;8.520;2022-10-31T14:02:49;18.90;;;9.98;;
75112;SDS011;63692;47.338;8.520;2022-10-31T14:05:25;21.30;;;9.52;;
75112;SDS011;63692;47.338;8.520;2022-10-31T14:07:54;16.67;;;9.35;;
75112;SDS011;63692;47.338;8.520;2022-10-31T14:10:25;27.25;;;9.18;;
75112;SDS011;63692;47.338;8.520;2022-10-31T14:15:55;18.23;;;9.60;;
75112;SDS011;63692;47.338;8.520;2022-10-31T14:18:36;17.75;;;8.40;;
75112;SDS011;63692;47.338;8.520;2022-10-31T14:23:39;19.88;;;8.88;;
75112;SDS011;63692;47.338;8.520;2022-10-31T14:26:18;16.20;;;8.10;;
75112;SDS011;63692;47.338;8.520;2022-10-31T14:31:37;20.55;;;8.48;;
75112;SDS011;63692;47.338;8.520;2022-10-31T14:34:29;17.10;;;9.13;;
75112;SDS011;63692;47.338;8.520;2022-10-31T14:42:41;29.88;;;8.68;;
75112;SDS011;63692;47.338;8.520;2022-10-31T14:48:24;23.75;;;9.50;;
75112;SDS011;63692;47.338;8.520;2022-10-31T14:50:49;17.45;;;8.75;;
75112;SDS011;63692;47.338;8.520;2022-10-31T14:53:27;20.65;;;8.48;;
75112;SDS011;63692;47.338;8.520;2022-10-31T14:55:59;29.00;;;9.07;;
75112;SDS011;63692;47.338;8.520;2022-10-31T15:01:03;23.92;;;8.95;;
75112;SDS011;63692;47.338;8.520;2022-10-31T15:03:33;18.95;;;7.97;;
75112;SDS011;63692;47.338;8.520;2022-10-31T15:06:05;22.90;;;8.77;;
75112;SDS011;63692;47.338;8.520;2022-10-31T15:08:52;20.17;;;8.43;;
75112;SDS011;63692;47.338;8.520;2022-10-31T15:16:18;17.83;;;8.38;;
75112;SDS011;63692;47.338;8.520;2022-10-31T15:18:53;17.23;;;8.30;;
75112;SDS011;63692;47.338;8.520;2022-10-31T15:21:23;20.50;;;8.60;;
75112;SDS011;63692;47.338;8.520;2022-10-31T15:26:33;23.73;;;9.15;;
75112;SDS011;63692;47.338;8.520;2022-10-31T15:31:48;17.75;;;8.73;;
75112;SDS011;63692;47.338;8.520;2022-10-31T15:34:29;22.92;;;9.13;;
75112;SDS011;63692;47.338;8.520;2022-10-31T15:37:02;21.63;;;8.50;;
75112;SDS011;63692;47.338;8.520;2022-10-31T15:39:28;20.40;;;8.10;;
75112;SDS011;63692;47.338;8.520;2022-10-31T15:41:55;16.00;;;8.50;;
75112;SDS011;63692;47.338;8.520;2022-10-31T15:44:26;15.05;;;7.85;;
75112;SDS011;63692;47.338;8.520;2022-10-31T15:48:44;17.00;;;7.90;;
75112;SDS011;63692;47.338;8.520;2022-10-31T15:51:12;21.92;;;8.50;;
75112;SDS011;63692;47.338;8.520;2022-10-31T15:53:41;18.83;;;8.30;;
75112;SDS011;63692;47.338;8.520;2022-10-31T15:56:13;22.35;;;8.52;;
75112;SDS011;63692;47.338;8.520;2022-10-31T15:58:49;16.65;;;7.70;;
75112;SDS011;63692;47.338;8.520;2022-10-31T16:01:27;19.85;;;8.27;;
75112;SDS011;63692;47.338;8.520;2022-10-31T16:03:58;18.23;;;8.15;;
75112;SDS011;63692;47.338;8.520;2022-10-31T16:06:36;17.70;;;9.25;;
75112;SDS011;63692;47.338;8.520;2022-10-31T16:09:03;20.52;;;9.02;;
75112;SDS011;63692;47.338;8.520;2022-10-31T16:11:43;20.83;;;9.43;;
75112;SDS011;63692;47.338;8.520;2022-10-31T16:16:40;20.75;;;8.90;;
75112;SDS011;63692;47.338;8.520;2022-10-31T16:19:23;18.48;;;9.52;;
75112;SDS011;63692;47.338;8.520;2022-10-31T16:22:08;21.97;;;8.90;;
75112;SDS011;63692;47.338;8.520;2022-10-31T16:24:43;20.92;;;9.75;;
75112;SDS011;63692;47.338;8.520;2022-10-31T16:27:22;21.92;;;10.05;;
75112;SDS011;63692;47.338;8.520;2022-10-31T16:29:52;25.45;;;9.45;;
75112;SDS011;63692;47.338;8.520;2022-10-31T16:32:25;20.83;;;10.07;;
75112;SDS011;63692;47.338;8.520;2022-10-31T16:35:02;17.55;;;10.15;;
75112;SDS011;63692;47.338;8.520;2022-10-31T16:37:43;19.63;;;9.75;;
75112;SDS011;63692;47.338;8.520;2022-10-31T16:40:10;22.42;;;10.23;;
75112;SDS011;63692;47.338;8.520;2022-10-31T16:42:38;22.45;;;9.13;;
75112;SDS011;63692;47.338;8.520;2022-10-31T16:45:05;20.50;;;9.20;;
75112;SDS011;63692;47.338;8.520;2022-10-31T16:47:31;20.50;;;11.00;;
75112;SDS011;63692;47.338;8.520;2022-10-31T16:52:33;21.85;;;10.57;;
75112;SDS011;63692;47.338;8.520;2022-10-31T16:54:59;23.88;;;9.75;;
75112;SDS011;63692;47.338;8.520;2022-10-31T16:57:28;16.70;;;8.75;;
75112;SDS011;63692;47.338;8.520;2022-10-31T16:59:55;21.48;;;10.55;;
75112;SDS011;63692;47.338;8.520;2022-10-31T17:02:22;20.20;;;9.82;;
75112;SDS011;63692;47.338;8.520;2022-10-31T17:04:48;19.55;;;10.20;;
75112;SDS011;63692;47.338;8.520;2022-10-31T17:07:14;20.05;;;10.60;;
75112;SDS011;63692;47.338;8.520;2022-10-31T17:09:39;23.40;;;11.43;;
75112;SDS011;63692;47.338;8.520;2022-10-31T17:12:05;23.77;;;10.93;;
75112;SDS011;63692;47.338;8.520;2022-10-31T17:14:36;20.17;;;10.50;;
75112;SDS011;63692;47.338;8.520;2022-10-31T17:17:01;25.30;;;12.07;;
75112;SDS011;63692;47.338;8.520;2022-10-31T17:19:27;25.77;;;11.20;;
75112;SDS011;63692;47.338;8.520;2022-10-31T17:21:53;24.55;;;11.40;;
75112;SDS011;63692;47.338;8.520;2022-10-31T17:24:19;21.60;;;10.35;;
75112;SDS011;63692;47.338;8.520;2022-10-31T17:26:44;22.17;;;10.45;;
75112;SDS011;63692;47.338;8.520;2022-10-31T17:29:11;23.35;;;9.90;;
75112;SDS011;63692;47.338;8.520;2022-10-31T17:31:36;22.70;;;10.57;;
75112;SDS011;63692;47.338;8.520;2022-10-31T17:34:03;24.42;;;10.80;;
75112;SDS011;63692;47.338;8.520;2022-10-31T17:36:30;21.15;;;9.80;;
75112;SDS011;63692;47.338;8.520;2022-10-31T17:38:57;23.95;;;9.73;;
75112;SDS011;63692;47.338;8.520;2022-10-31T17:41:24;19.23;;;10.10;;
75112;SDS011;63692;47.338;8.520;2022-10-31T17:43:56;17.17;;;9.82;;
75112;SDS011;63692;47.338;8.520;2022-10-31T17:46:22;26.93;;;11.57;;
75112;SDS011;63692;47.338;8.520;2022-10-31T17:48:48;20.45;;;11.38;;
75112;SDS011;63692;47.338;8.520;2022-10-31T17:51:14;22.77;;;10.40;;
75112;SDS011;63692;47.338;8.520;2022-10-31T17:53:39;20.48;;;10.20;;
75112;SDS011;63692;47.338;8.520;2022-10-31T17:56:06;18.10;;;10.27;;
75112;SDS011;63692;47.338;8.520;2022-10-31T17:58:33;19.50;;;8.93;;
75112;SDS011;63692;47.338;8.520;2022-10-31T18:01:05;16.25;;;8.13;;
75112;SDS011;63692;47.338;8.520;2022-10-31T18:03:32;17.67;;;9.25;;
75112;SDS011;63692;47.338;8.520;2022-10-31T18:05:58;25.25;;;11.00;;
75112;SDS011;63692;47.338;8.520;2022-10-31T18:08:27;17.42;;;8.93;;
75112;SDS011;63692;47.338;8.520;2022-10-31T18:10:55;21.85;;;9.52;;
75112;SDS011;63692;47.338;8.520;2022-10-31T18:13:25;17.23;;;9.45;;
75112;SDS011;63692;47.338;8.520;2022-10-31T18:15:51;20.20;;;10.48;;
75112;SDS011;63692;47.338;8.520;2022-10-31T18:18:17;20.75;;;10.35;;
75112;SDS011;63692;47.338;8.520;2022-10-31T18:20:43;21.10;;;9.15;;
75112;SDS011;63692;47.338;8.520;2022-10-31T18:23:09;21.92;;;9.25;;
75112;SDS011;63692;47.338;8.520;2022-10-31T18:25:35;18.63;;;9.02;;
75112;SDS011;63692;47.338;8.520;2022-10-31T18:28:03;20.02;;;9.10;;
75112;SDS011;63692;47.338;8.520;2022-10-31T18:30:30;18.92;;;9.27;;
75112;SDS011;63692;47.338;8.520;2022-10-31T18:32:56;24.08;;;8.90;;
75112;SDS011;63692;47.338;8.520;2022-10-31T18:35:22;18.52;;;8.95;;
75112;SDS011;63692;47.338;8.520;2022-10-31T18:37:47;22.05;;;9.30;;
75112;SDS011;63692;47.338;8.520;2022-10-31T18:40:13;25.23;;;8.80;;
75112;SDS011;63692;47.338;8.520;2022-10-31T18:42:39;20.45;;;8.90;;
75112;SDS011;63692;47.338;8.520;2022-10-31T18:45:05;16.98;;;9.30;;
75112;SDS011;63692;47.338;8.520;2022-10-31T18:47:30;19.77;;;9.18;;
75112;SDS011;63692;47.338;8.520;2022-10-31T18:49:56;21.52;;;8.95;;
75112;SDS011;63692;47.338;8.520;2022-10-31T18:52:22;16.45;;;8.40;;
75112;SDS011;63692;47.338;8.520;2022-10-31T18:54:47;18.73;;;8.65;;
75112;SDS011;63692;47.338;8.520;2022-10-31T18:57:13;18.75;;;9.30;;
75112;SDS011;63692;47.338;8.520;2022-10-31T18:59:39;19.20;;;9.18;;
75112;SDS011;63692;47.338;8.520;2022-10-31T19:02:05;16.02;;;8.98;;
75112;SDS011;63692;47.338;8.520;2022-10-31T19:04:30;19.30;;;9.27;;
75112;SDS011;63692;47.338;8.520;2022-10-31T19:09:23;20.67;;;9.15;;
75112;SDS011;63692;47.338;8.520;2022-10-31T19:26:34;17.10;;;7.88;;
75112;SDS011;63692;47.338;8.520;2022-10-31T19:31:27;17.98;;;8.50;;
75112;SDS011;63692;47.338;8.520;2022-10-31T19:33:52;18.10;;;8.43;;
75112;SDS011;63692;47.338;8.520;2022-10-31T19:36:18;19.02;;;8.55;;
75112;SDS011;63692;47.338;8.520;2022-10-31T19:38:45;17.90;;;9.75;;
75112;SDS011;63692;47.338;8.520;2022-10-31T19:41:17;21.50;;;10.30;;
75112;SDS011;63692;47.338;8.520;2022-10-31T19:46:21;19.27;;;8.80;;
75112;SDS011;63692;47.338;8.520;2022-10-31T19:48:47;15.93;;;8.48;;
75112;SDS011;63692;47.338;8.520;2022-10-31T19:51:17;19.70;;;9.32;;
75112;SDS011;63692;47.338;8.520;2022-10-31T19:58:47;17.38;;;8.75;;
75112;SDS011;63692;47.338;8.520;2022-10-31T20:04:14;22.45;;;9.07;;
75112;SDS011;63692;47.338;8.520;2022-10-31T20:06:39;19.73;;;8.93;;
75112;SDS011;63692;47.338;8.520;2022-10-31T20:09:10;21.42;;;9.30;;
75112;SDS011;63692;47.338;8.520;2022-10-31T20:11:42;20.75;;;8.88;;
75112;SDS011;63692;47.338;8.520;2022-10-31T20:14:09;15.10;;;8.27;;
75112;SDS011;63692;47.338;8.520;2022-10-31T20:16:36;18.35;;;8.13;;
75112;SDS011;63692;47.338;8.520;2022-10-31T20:19:02;19.90;;;8.70;;
75112;SDS011;63692;47.338;8.520;2022-10-31T20:21:29;18.48;;;8.15;;
75112;SDS011;63692;47.338;8.520;2022-10-31T20:24:29;22.02;;;8.73;;
75112;SDS011;63692;47.338;8.520;2022-10-31T20:26:56;19.63;;;9.00;;
75112;SDS011;63692;47.338;8.520;2022-10-31T20:37:08;22.20;;;9.25;;
